createdAt,value
2018-08-28T00:02:13.829Z,2.55
2018-08-28T00:04:44.483Z,2.40
2018-08-28T00:07:15.217Z,2.65
2018-08-28T00:09:46.044Z,2.70
2018-08-28T00:12:16.758Z,2.95
2018-08-28T00:14:47.550Z,3.27
2018-08-28T00:17:18.034Z,3.75
2018-08-28T00:19:48.497Z,4.15
2018-08-28T00:22:19.200Z,3.37
2018-08-28T00:24:49.957Z,4.10
2018-08-28T00:27:20.465Z,3.98
2018-08-28T00:29:51.004Z,4.35
2018-08-28T00:32:21.726Z,4.20
2018-08-28T00:34:52.541Z,4.25
2018-08-28T00:37:23.096Z,4.17
2018-08-28T00:39:53.849Z,4.20
2018-08-28T00:42:24.829Z,4.30
2018-08-28T00:44:55.501Z,4.25
2018-08-28T00:47:25.966Z,4.05
2018-08-28T00:49:56.684Z,3.70
2018-08-28T00:52:27.450Z,3.75
2018-08-28T00:54:58.350Z,3.65
2018-08-28T00:57:28.906Z,3.90
2018-08-28T00:59:59.571Z,4.22
2018-08-28T01:02:30.090Z,4.20
2018-08-28T01:05:00.740Z,3.90
2018-08-28T01:07:31.484Z,4.03
2018-08-28T01:10:02.297Z,3.90
2018-08-28T01:12:33.076Z,3.67
2018-08-28T01:15:03.546Z,3.70
2018-08-28T01:17:34.260Z,3.70
2018-08-28T01:20:05.552Z,3.77
2018-08-28T01:22:36.226Z,3.90
2018-08-28T01:25:07.917Z,3.85
2018-08-28T01:27:38.674Z,4.05
2018-08-28T01:30:09.389Z,3.62
2018-08-28T01:32:40.156Z,4.10
2018-08-28T01:35:10.861Z,3.75
2018-08-28T01:37:41.577Z,3.90
2018-08-28T01:40:12.421Z,4.35
2018-08-28T01:42:43.677Z,4.25
2018-08-28T01:45:14.361Z,3.98
2018-08-28T01:47:44.837Z,4.28
2018-08-28T01:50:15.922Z,3.90
2018-08-28T01:52:46.625Z,4.50
2018-08-28T01:55:17.368Z,4.00
2018-08-28T01:57:48.045Z,4.37
2018-08-28T02:00:18.786Z,3.98
2018-08-28T02:02:49.509Z,4.10
2018-08-28T02:05:20.220Z,3.58
2018-08-28T02:07:50.806Z,4.05
2018-08-28T02:10:21.719Z,4.17
2018-08-28T02:12:52.269Z,3.90
2018-08-28T02:15:22.742Z,3.72
2018-08-28T02:17:53.497Z,4.87
2018-08-28T02:20:24.507Z,3.83
2018-08-28T02:22:55.355Z,4.25
2018-08-28T02:25:26.110Z,3.95
2018-08-28T02:27:57.020Z,3.98
2018-08-28T02:30:28.083Z,4.00
2018-08-28T02:32:58.549Z,3.80
2018-08-28T02:35:29.239Z,3.62
2018-08-28T02:38:00.661Z,4.42
2018-08-28T02:40:31.449Z,4.10
2018-08-28T02:43:02.601Z,3.98
2018-08-28T02:45:33.253Z,3.50
2018-08-28T02:48:03.927Z,3.50
2018-08-28T02:50:34.888Z,3.75
2018-08-28T02:53:05.622Z,3.80
2018-08-28T02:55:36.398Z,3.98
2018-08-28T02:58:07.280Z,3.67
2018-08-28T03:00:37.950Z,3.95
2018-08-28T03:03:09.717Z,4.17
2018-08-28T03:05:40.374Z,4.20
2018-08-28T03:08:11.182Z,4.05
2018-08-28T03:10:41.870Z,4.03
2018-08-28T03:13:12.873Z,4.10
2018-08-28T03:15:43.685Z,4.10
2018-08-28T03:18:14.645Z,4.42
2018-08-28T03:20:45.338Z,4.50
2018-08-28T03:23:16.285Z,4.10
2018-08-28T03:25:46.962Z,3.92
2018-08-28T06:13:58.337Z,4.70
2018-08-28T06:16:29.407Z,4.80
2018-08-28T06:18:59.823Z,4.75
2018-08-28T06:21:30.774Z,5.33
2018-08-28T06:24:01.451Z,4.97
2018-08-28T06:26:33.210Z,4.53
2018-08-28T06:29:04.686Z,4.60
2018-08-28T06:31:35.342Z,5.17
2018-08-28T06:34:06.788Z,5.00
2018-08-28T06:36:37.722Z,4.62
2018-08-28T06:39:09.556Z,4.83
2018-08-28T06:41:40.411Z,4.72
2018-08-28T06:44:11.494Z,3.92
2018-08-28T06:46:42.613Z,4.67
2018-08-28T06:49:16.128Z,4.85
2018-08-28T06:51:46.846Z,4.67
2018-08-28T06:54:17.961Z,4.10
2018-08-28T06:56:48.510Z,4.80
2018-08-28T06:59:18.877Z,4.03
2018-08-28T07:01:49.438Z,4.45
2018-08-28T07:04:20.250Z,4.83
2018-08-28T07:06:50.929Z,4.67
2018-08-28T07:09:21.444Z,4.60
2018-08-28T07:11:51.828Z,4.03
2018-08-28T07:14:22.510Z,4.78
2018-08-28T07:16:53.197Z,4.60
2018-08-28T07:19:23.988Z,5.12
2018-08-28T07:21:55.065Z,4.65
2018-08-28T07:24:25.890Z,5.00
2018-08-28T07:26:57.067Z,4.35
2018-08-28T07:29:27.466Z,4.37
2018-08-28T07:31:58.041Z,4.62
2018-08-28T07:34:28.537Z,4.25
2018-08-28T07:36:59.257Z,4.58
2018-08-28T07:39:29.766Z,4.42
2018-08-28T07:42:00.441Z,4.20
2018-08-28T07:44:31.216Z,4.50
2018-08-28T07:47:01.436Z,4.58
2018-08-28T07:49:31.802Z,4.22
2018-08-28T07:52:02.516Z,4.50
2018-08-28T07:54:33.208Z,4.25
2018-08-28T07:57:03.894Z,4.60
2018-08-28T07:59:34.667Z,4.30
2018-08-28T08:02:06.031Z,4.62
2018-08-28T08:04:37.212Z,4.90
2018-08-28T08:07:07.972Z,4.20
2018-08-28T08:09:38.646Z,4.78
2018-08-28T08:12:09.492Z,4.67
2018-08-28T08:14:40.460Z,4.62
2018-08-28T08:17:10.704Z,4.05
2018-08-28T08:19:40.928Z,4.67
2018-08-28T08:22:11.461Z,4.50
2018-08-28T08:24:42.793Z,4.00
2018-08-28T08:27:13.616Z,4.50
2018-08-28T08:29:44.441Z,4.50
2018-08-28T08:32:15.123Z,4.22
2018-08-28T08:34:45.622Z,3.87
2018-08-28T08:37:16.102Z,3.65
2018-08-28T08:39:46.761Z,3.47
2018-08-28T08:42:17.238Z,3.37
2018-08-28T08:44:47.618Z,3.40
2018-08-28T08:47:19.447Z,3.37
2018-08-28T08:49:50.341Z,3.10
2018-08-28T08:52:21.128Z,3.62
2018-08-28T08:54:51.774Z,3.58
2018-08-28T08:57:22.409Z,4.15
2018-08-28T08:59:53.361Z,3.83
2018-08-28T09:02:23.861Z,4.17
2018-08-28T09:04:54.831Z,4.28
2018-08-28T09:07:25.342Z,4.17
2018-08-28T09:09:56.150Z,4.30
2018-08-28T09:12:26.664Z,3.95
2018-08-28T09:14:57.508Z,4.08
2018-08-28T09:17:28.162Z,4.28
2018-08-28T09:19:58.567Z,4.15
2018-08-28T09:22:28.684Z,4.43
2018-08-28T09:24:59.087Z,4.10
2018-08-28T09:27:29.359Z,4.43
2018-08-28T09:30:00.133Z,4.40
2018-08-28T09:32:30.551Z,4.10
2018-08-28T09:35:01.050Z,4.47
2018-08-28T09:37:31.893Z,3.98
2018-08-28T09:40:02.719Z,4.65
2018-08-28T09:42:33.465Z,5.00
2018-08-28T09:45:04.250Z,4.47
2018-08-28T09:47:34.983Z,4.72
2018-08-28T09:50:06.391Z,4.67
2018-08-28T09:52:36.629Z,4.47
2018-08-28T09:55:07.291Z,4.03
2018-08-28T09:57:38.249Z,4.10
2018-08-28T10:00:14.151Z,4.17
2018-08-28T10:02:44.792Z,4.45
2018-08-28T10:05:15.249Z,4.15
2018-08-28T10:07:45.626Z,4.22
2018-08-28T10:10:16.279Z,4.17
2018-08-28T10:12:46.809Z,3.45
2018-08-28T10:15:17.707Z,4.35
2018-08-28T10:17:48.507Z,4.10
2018-08-28T10:20:18.695Z,3.80
2018-08-28T10:22:49.395Z,3.47
2018-08-28T10:25:20.295Z,3.80
2018-08-28T10:27:50.999Z,3.65
2018-08-28T10:30:21.741Z,4.53
2018-08-28T10:32:52.401Z,4.20
2018-08-28T10:35:22.762Z,4.78
2018-08-28T10:37:53.786Z,3.98
2018-08-28T10:40:24.480Z,3.95
2018-08-28T10:42:55.252Z,4.45
2018-08-28T10:45:25.752Z,4.08
2018-08-28T10:47:56.612Z,4.12
2018-08-28T10:50:27.340Z,4.50
2018-08-28T10:52:57.993Z,4.37
2018-08-28T10:55:28.845Z,4.20
2018-08-28T10:57:59.392Z,4.70
2018-08-28T11:00:30.480Z,4.50
2018-08-28T11:03:01.302Z,4.60
2018-08-28T11:05:32.086Z,4.37
2018-08-28T11:08:03.225Z,4.30
2018-08-28T11:10:34.195Z,4.60
2018-08-28T11:13:04.834Z,4.30
2018-08-28T11:15:35.418Z,4.65
2018-08-28T11:18:06.414Z,4.85
2018-08-28T11:20:38.260Z,4.58
2018-08-28T11:23:09.012Z,4.42
2018-08-28T11:25:39.536Z,4.87
2018-08-28T11:28:09.860Z,4.97
2018-08-28T11:30:40.603Z,4.40
2018-08-28T11:33:11.457Z,4.62
2018-08-28T11:35:42.262Z,4.92
2018-08-28T11:38:14.243Z,5.20
2018-08-28T11:40:45.091Z,5.12
2018-08-28T11:43:15.849Z,4.87
2018-08-28T11:45:46.800Z,5.53
2018-08-28T11:48:17.437Z,5.12
2018-08-28T11:50:48.558Z,4.97
2018-08-28T11:53:19.533Z,6.55
2018-08-28T11:55:50.336Z,5.90
2018-08-28T11:58:21.369Z,5.70
2018-08-28T12:00:51.930Z,5.90
2018-08-28T12:03:23.289Z,5.67
2018-08-28T12:05:54.255Z,5.87
2018-08-28T12:08:24.946Z,6.50
2018-08-28T12:10:55.302Z,6.10
2018-08-28T12:13:26.056Z,6.17
2018-08-28T12:15:56.944Z,5.62
2018-08-28T12:18:27.511Z,5.65
2018-08-28T12:20:58.169Z,6.25
2018-08-28T12:23:29.190Z,6.35
2018-08-28T12:26:00.085Z,6.25
2018-08-28T12:28:30.926Z,6.30
2018-08-28T12:31:01.709Z,6.53
2018-08-28T12:33:33.670Z,6.87
2018-08-28T12:36:04.788Z,7.15
2018-08-28T12:38:35.352Z,7.42
2018-08-28T12:41:05.873Z,7.85
2018-08-28T12:43:36.603Z,7.85
2018-08-28T12:46:07.234Z,7.53
2018-08-28T12:48:37.952Z,7.37
2018-08-28T12:51:09.354Z,7.33
2018-08-28T12:53:39.938Z,7.70
2018-08-28T12:56:11.019Z,6.42
2018-08-28T12:58:41.562Z,6.35
2018-08-28T13:01:12.187Z,6.17
2018-08-28T13:03:43.161Z,6.60
2018-08-28T13:06:13.803Z,7.15
2018-08-28T13:08:45.033Z,7.17
2018-08-28T13:11:15.741Z,5.67
2018-08-28T13:13:47.261Z,5.83
2018-08-28T13:16:17.732Z,5.70
2018-08-28T13:18:48.108Z,5.87
2018-08-28T13:21:18.928Z,5.80
2018-08-28T13:23:49.689Z,5.03
2018-08-28T13:26:20.191Z,5.70
2018-08-28T13:28:51.088Z,6.47
2018-08-28T13:31:21.935Z,6.90
2018-08-28T13:33:52.647Z,6.35
2018-08-28T13:36:24.074Z,6.67
2018-08-28T13:38:54.779Z,6.20
2018-08-28T13:41:25.278Z,6.00
2018-08-28T13:43:57.592Z,5.90
2018-08-28T13:46:28.478Z,6.42
2018-08-28T13:48:58.982Z,5.83
2018-08-28T13:51:29.183Z,5.50
2018-08-28T13:53:59.936Z,5.78
2018-08-28T13:56:30.450Z,6.00
2018-08-28T13:59:04.242Z,5.67
2018-08-28T14:01:34.965Z,5.08
2018-08-28T14:04:06.702Z,5.25
2018-08-28T14:06:37.608Z,5.78
2018-08-28T14:09:08.347Z,5.62
2018-08-28T14:11:39.130Z,6.17
2018-08-28T14:14:10.095Z,5.47
2018-08-28T14:16:40.979Z,5.60
2018-08-28T14:19:11.696Z,5.62
2018-08-28T14:21:42.206Z,5.35
2018-08-28T14:24:12.686Z,5.62
2018-08-28T14:26:43.603Z,5.90
2018-08-28T14:29:15.533Z,5.70
2018-08-28T14:31:47.080Z,5.58
2018-08-28T14:34:20.637Z,5.87
2018-08-28T14:36:50.786Z,6.00
2018-08-28T14:39:22.234Z,5.70
2018-08-28T14:41:57.575Z,6.00
2018-08-28T14:44:29.923Z,6.05
2018-08-28T14:47:02.244Z,6.25
2018-08-28T14:49:36.932Z,5.53
2018-08-28T14:52:07.316Z,6.87
2018-08-28T14:54:39.922Z,5.95
2018-08-28T14:57:11.497Z,5.60
2018-08-28T14:59:43.297Z,6.42
2018-08-28T15:02:14.271Z,5.85
2018-08-28T15:04:45.549Z,5.85
2018-08-28T15:07:20.152Z,5.55
2018-08-28T15:09:51.067Z,5.20
2018-08-28T15:12:23.105Z,5.70
2018-08-28T15:14:55.724Z,5.83
2018-08-28T15:17:27.168Z,6.05
2018-08-28T15:20:00.990Z,5.62
2018-08-28T15:22:32.555Z,5.70
2018-08-28T15:25:20.156Z,6.00
2018-08-28T15:27:52.414Z,6.30
2018-08-28T15:30:27.565Z,5.67
2018-08-28T15:32:59.889Z,5.83
2018-08-28T15:35:34.402Z,5.70
2018-08-28T15:38:05.572Z,6.10
2018-08-28T15:40:36.184Z,5.40
2018-08-28T15:43:06.925Z,6.17
2018-08-28T15:45:37.656Z,5.95
2018-08-28T15:48:09.192Z,5.75
2018-08-28T15:50:40.256Z,5.40
2018-08-28T15:53:11.312Z,5.70
2018-08-28T15:55:42.292Z,5.62
2018-08-28T15:58:13.149Z,5.85
2018-08-28T16:00:43.704Z,5.62
2018-08-28T16:03:14.775Z,6.28
2018-08-28T16:05:45.518Z,5.58
2018-08-28T16:08:16.276Z,5.55
2018-08-28T16:10:47.057Z,5.75
2018-08-28T16:13:19.510Z,6.08
2018-08-28T16:15:50.330Z,5.85
2018-08-28T16:18:22.000Z,6.47
2018-08-28T16:20:52.742Z,6.65
2018-08-28T16:23:34.854Z,5.78
2018-08-28T16:26:05.605Z,5.83
2018-08-28T16:28:36.497Z,5.62
2018-08-28T16:31:07.351Z,5.75
2018-08-28T16:33:37.972Z,6.00
2018-08-28T16:36:08.376Z,5.58
2018-08-28T16:38:38.779Z,5.90
2018-08-28T16:41:09.548Z,5.97
2018-08-28T16:43:40.478Z,5.85
2018-08-28T16:46:10.946Z,5.97
2018-08-28T16:48:43.203Z,5.92
2018-08-28T16:51:17.115Z,5.33
2018-08-28T16:53:47.996Z,5.60
2018-08-28T16:56:18.514Z,5.62
2018-08-28T16:58:49.761Z,6.15
2018-08-28T17:01:20.883Z,6.05
2018-08-28T17:03:52.052Z,6.17
2018-08-28T17:06:22.597Z,5.72
2018-08-28T17:08:56.040Z,5.33
2018-08-28T17:11:27.301Z,6.15
2018-08-28T17:13:57.934Z,5.97
2018-08-28T17:16:29.075Z,6.03
2018-08-28T17:18:59.772Z,6.28
2018-08-28T17:21:30.646Z,6.17
2018-08-28T17:24:01.777Z,5.55
2018-08-28T17:26:32.390Z,5.67
2018-08-28T17:29:03.201Z,5.67
2018-08-28T17:31:34.670Z,5.47
2018-08-28T17:34:05.901Z,6.20
2018-08-28T17:36:36.752Z,6.53
2018-08-28T17:39:08.052Z,6.25
2018-08-28T17:41:38.953Z,5.45
2018-08-28T17:44:09.511Z,6.05
2018-08-28T17:46:40.224Z,6.40
2018-08-28T17:49:10.860Z,6.12
2018-08-28T17:51:41.581Z,5.90
2018-08-28T17:54:12.017Z,6.00
2018-08-28T17:56:42.712Z,6.17
2018-08-28T17:59:13.413Z,6.45
2018-08-28T18:01:44.134Z,6.33
2018-08-28T18:04:14.445Z,5.78
2018-08-28T18:06:44.920Z,6.20
2018-08-28T18:09:15.726Z,6.10
2018-08-28T18:11:46.213Z,7.33
2018-08-28T18:14:16.962Z,8.08
2018-08-28T18:16:47.517Z,6.87
2018-08-28T18:19:18.098Z,8.68
2018-08-28T18:21:48.778Z,8.53
2018-08-28T18:24:19.383Z,8.55
2018-08-28T18:26:50.519Z,7.92
2018-08-28T18:29:21.365Z,7.67
2018-08-28T18:31:52.517Z,7.95
2018-08-28T18:34:23.156Z,8.43
2018-08-28T18:36:53.738Z,8.30
2018-08-28T18:39:24.104Z,8.45
2018-08-28T18:41:54.771Z,8.43
2018-08-28T18:44:25.263Z,8.87
2018-08-28T18:46:56.090Z,8.30
2018-08-28T18:49:26.998Z,8.53
2018-08-28T18:51:58.072Z,9.20
2018-08-28T18:54:28.692Z,8.50
2018-08-28T18:56:59.542Z,9.25
2018-08-28T18:59:30.154Z,10.50
2018-08-28T19:02:00.571Z,9.60
2018-08-28T19:04:30.949Z,10.38
2018-08-28T19:07:01.579Z,11.05
2018-08-28T19:09:32.227Z,10.25
2018-08-28T19:12:02.707Z,10.35
2018-08-28T19:14:33.429Z,10.50
2018-08-28T19:17:04.393Z,10.78
2018-08-28T19:19:35.098Z,11.33
2018-08-28T19:22:05.533Z,10.63
2018-08-28T19:24:36.082Z,11.00
2018-08-28T19:27:06.837Z,11.05
2018-08-28T19:29:37.326Z,10.90
2018-08-28T19:32:08.005Z,11.25
2018-08-28T19:34:38.637Z,11.65
2018-08-28T19:37:09.038Z,11.60
2018-08-28T19:39:39.425Z,12.13
2018-08-28T19:42:09.820Z,12.28
2018-08-28T19:44:40.484Z,11.78
2018-08-28T19:47:10.934Z,12.25
2018-08-28T19:49:41.336Z,11.93
2018-08-28T19:52:11.966Z,12.10
2018-08-28T19:54:42.650Z,12.45
2018-08-28T19:57:12.884Z,12.53
2018-08-28T19:59:43.679Z,12.13
2018-08-28T20:02:14.417Z,11.85
2018-08-28T20:04:44.855Z,13.20
2018-08-28T20:07:15.482Z,12.53
2018-08-28T20:09:46.335Z,11.95
2018-08-28T20:12:17.158Z,12.33
2018-08-28T20:14:47.549Z,11.90
2018-08-28T20:17:17.599Z,11.60
2018-08-28T20:19:48.393Z,12.40
2018-08-28T20:22:18.772Z,12.07
2018-08-28T20:38:21.389Z,6.85
2018-08-28T20:41:10.963Z,6.67
2018-08-28T20:43:41.063Z,6.80
2018-08-28T20:46:11.389Z,7.22
2018-08-28T20:48:42.023Z,6.55
2018-08-28T20:51:12.507Z,6.33
2018-08-28T20:53:43.148Z,6.90
2018-08-28T20:56:13.322Z,6.58
2018-08-28T21:25:52.157Z,6.92
2018-08-28T21:28:22.805Z,6.70
2018-08-28T21:30:53.122Z,6.65
2018-08-28T21:33:23.665Z,6.92
2018-08-28T21:35:54.009Z,6.65
2018-08-28T21:38:24.991Z,6.90
2018-08-28T21:40:55.321Z,6.60
2018-08-28T21:43:25.345Z,6.70
2018-08-28T21:45:55.934Z,6.72
2018-08-28T21:48:26.393Z,7.08
2018-08-28T21:50:56.829Z,7.50
2018-08-28T21:53:27.281Z,7.40
